sensor_id;sensor_type;location;lat;lon;timestamp;pressure;altitude;pressure_sealevel;temperature;humidity
42945;BME280;28584;42.636;23.294;2023-03-14T00:00:53;158728.03;;;0.63;100.00
42945;BME280;28584;42.636;23.294;2023-03-14T00:03:19;158677.66;;;0.44;100.00
42945;BME280;28584;42.636;23.294;2023-03-14T00:05:44;158626.00;;;0.25;100.00
42945;BME280;28584;42.636;23.294;2023-03-14T00:08:10;158569.03;;;0.03;100.00
42945;BME280;28584;42.636;23.294;2023-03-14T00:10:36;158551.81;;;-0.04;100.00
42945;BME280;28584;42.636;23.294;2023-03-14T00:13:02;158551.81;;;-0.04;100.00
42945;BME280;28584;42.636;23.294;2023-03-14T00:15:27;158554.47;;;-0.03;100.00
42945;BME280;28584;42.636;23.294;2023-03-14T00:17:52;158525.34;;;-0.14;100.00
42945;BME280;28584;42.636;23.294;2023-03-14T00:20:18;158467.09;;;-0.36;100.00
42945;BME280;28584;42.636;23.294;2023-03-14T00:22:43;158447.22;;;-0.43;100.00
42945;BME280;28584;42.636;23.294;2023-03-14T00:25:10;158424.72;;;-0.52;100.00
42945;BME280;28584;42.636;23.294;2023-03-14T00:27:36;158387.66;;;-0.66;100.00
42945;BME280;28584;42.636;23.294;2023-03-14T00:30:03;158371.75;;;-0.72;100.00
42945;BME280;28584;42.636;23.294;2023-03-14T00:32:29;158404.84;;;-0.59;100.00
42945;BME280;28584;42.636;23.294;2023-03-14T00:34:54;158365.16;;;-0.74;100.00
42945;BME280;28584;42.636;23.294;2023-03-14T00:37:19;158349.25;;;-0.80;100.00
42945;BME280;28584;42.636;23.294;2023-03-14T00:39:45;158305.59;;;-0.97;100.00
42945;BME280;28584;42.636;23.294;2023-03-14T00:42:10;158304.25;;;-0.97;100.00
42945;BME280;28584;42.636;23.294;2023-03-14T00:44:36;158291.03;;;-1.02;100.00
42945;BME280;28584;42.636;23.294;2023-03-14T00:47:01;158317.50;;;-0.92;100.00
42945;BME280;28584;42.636;23.294;2023-03-14T00:49:26;158355.91;;;-0.78;100.00
42945;BME280;28584;42.636;23.294;2023-03-14T00:51:52;158416.75;;;-0.55;100.00
42945;BME280;28584;42.636;23.294;2023-03-14T00:54:19;158398.22;;;-0.62;100.00
42945;BME280;28584;42.636;23.294;2023-03-14T00:56:44;158373.09;;;-0.71;100.00
42945;BME280;28584;42.636;23.294;2023-03-14T00:59:10;158399.56;;;-0.61;100.00
42945;BME280;28584;42.636;23.294;2023-03-14T01:01:35;158403.53;;;-0.60;100.00
42945;BME280;28584;42.636;23.294;2023-03-14T01:04:01;158408.81;;;-0.58;100.00
42945;BME280;28584;42.636;23.294;2023-03-14T01:06:28;158396.94;;;-0.62;100.00
42945;BME280;28584;42.636;23.294;2023-03-14T01:08:54;158387.66;;;-0.66;100.00
42945;BME280;28584;42.636;23.294;2023-03-14T01:11:29;158345.28;;;-0.82;100.00
42945;BME280;28584;42.636;23.294;2023-03-14T01:13:55;158313.53;;;-0.94;100.00
42945;BME280;28584;42.636;23.294;2023-03-14T01:16:22;158342.66;;;-0.83;100.00
42945;BME280;28584;42.636;23.294;2023-03-14T01:18:48;158351.94;;;-0.79;100.00
42945;BME280;28584;42.636;23.294;2023-03-14T01:21:25;158322.78;;;-0.90;100.00
42945;BME280;28584;42.636;23.294;2023-03-14T01:23:52;158271.19;;;-1.10;100.00
42945;BME280;28584;42.636;23.294;2023-03-14T01:26:21;158252.66;;;-1.17;100.00
42945;BME280;28584;42.636;23.294;2023-03-14T01:28:48;158243.44;;;-1.20;100.00
42945;BME280;28584;42.636;23.294;2023-03-14T01:31:14;158255.34;;;-1.16;100.00
42945;BME280;28584;42.636;23.294;2023-03-14T01:33:40;158236.81;;;-1.23;100.00
42945;BME280;28584;42.636;23.294;2023-03-14T01:36:06;158259.31;;;-1.14;100.00
42945;BME280;28584;42.636;23.294;2023-03-14T01:38:34;158268.56;;;-1.11;100.00
42945;BME280;28584;42.636;23.294;2023-03-14T01:41:00;158260.59;;;-1.14;100.00
42945;BME280;28584;42.636;23.294;2023-03-14T01:43:27;158275.16;;;-1.08;100.00
42945;BME280;28584;42.636;23.294;2023-03-14T01:51:07;158308.22;;;-0.96;100.00
42945;BME280;28584;42.636;23.294;2023-03-14T01:53:35;158310.91;;;-0.95;100.00
42945;BME280;28584;42.636;23.294;2023-03-14T01:56:01;158296.34;;;-1.00;100.00
42945;BME280;28584;42.636;23.294;2023-03-14T01:58:30;158281.81;;;-1.06;100.00
42945;BME280;28584;42.636;23.294;2023-03-14T02:00:58;158264.56;;;-1.12;100.00
42945;BME280;28584;42.636;23.294;2023-03-14T02:03:24;158259.31;;;-1.14;100.00
42945;BME280;28584;42.636;23.294;2023-03-14T02:05:53;158246.06;;;-1.19;100.00
42945;BME280;28584;42.636;23.294;2023-03-14T02:08:22;158220.94;;;-1.29;100.00
42945;BME280;28584;42.636;23.294;2023-03-14T02:10:50;158198.44;;;-1.37;100.00
42945;BME280;28584;42.636;23.294;2023-03-14T02:13:19;158173.31;;;-1.47;100.00
42945;BME280;28584;42.636;23.294;2023-03-14T02:15:46;158160.06;;;-1.52;100.00
42945;BME280;28584;42.636;23.294;2023-03-14T02:18:12;158149.50;;;-1.56;100.00
42945;BME280;28584;42.636;23.294;2023-03-14T02:20:47;158154.81;;;-1.54;100.00
42945;BME280;28584;42.636;23.294;2023-03-14T02:23:17;158123.03;;;-1.66;100.00
42945;BME280;28584;42.636;23.294;2023-03-14T02:26:07;158088.66;;;-1.79;100.00
42945;BME280;28584;42.636;23.294;2023-03-14T02:28:34;158075.44;;;-1.84;100.00
42945;BME280;28584;42.636;23.294;2023-03-14T02:30:59;158030.50;;;-2.01;100.00
42945;BME280;28584;42.636;23.294;2023-03-14T02:33:26;158062.25;;;-1.89;100.00
42945;BME280;28584;42.636;23.294;2023-03-14T02:36:02;158088.66;;;-1.79;100.00
42945;BME280;28584;42.636;23.294;2023-03-14T02:38:55;158113.81;;;-1.69;100.00
42945;BME280;28584;42.636;23.294;2023-03-14T02:41:23;158125.66;;;-1.65;100.00
42945;BME280;28584;42.636;23.294;2023-03-14T02:43:48;158161.41;;;-1.51;100.00
42945;BME280;28584;42.636;23.294;2023-03-14T02:46:17;158222.28;;;-1.28;100.00
42945;BME280;28584;42.636;23.294;2023-03-14T02:48:47;158210.38;;;-1.33;100.00
42945;BME280;28584;42.636;23.294;2023-03-14T02:51:14;158183.91;;;-1.43;100.00
42945;BME280;28584;42.636;23.294;2023-03-14T02:53:40;158186.53;;;-1.42;100.00
42945;BME280;28584;42.636;23.294;2023-03-14T02:56:07;158223.56;;;-1.28;100.00
42945;BME280;28584;42.636;23.294;2023-03-14T02:58:33;158240.78;;;-1.21;100.00
42945;BME280;28584;42.636;23.294;2023-03-14T03:00:59;158234.13;;;-1.24;100.00
42945;BME280;28584;42.636;23.294;2023-03-14T03:03:24;158250.03;;;-1.18;100.00
42945;BME280;28584;42.636;23.294;2023-03-14T03:05:51;158267.22;;;-1.11;100.00
42945;BME280;28584;42.636;23.294;2023-03-14T03:08:22;158271.19;;;-1.10;100.00
42945;BME280;28584;42.636;23.294;2023-03-14T03:10:48;158239.44;;;-1.22;100.00
42945;BME280;28584;42.636;23.294;2023-03-14T03:13:14;158220.94;;;-1.29;100.00
42945;BME280;28584;42.636;23.294;2023-03-14T03:15:39;158206.38;;;-1.34;100.00
42945;BME280;28584;42.636;23.294;2023-03-14T03:18:05;158195.81;;;-1.38;100.00
42945;BME280;28584;42.636;23.294;2023-03-14T03:20:31;158209.03;;;-1.33;100.00
42945;BME280;28584;42.636;23.294;2023-03-14T03:22:58;158182.56;;;-1.43;100.00
42945;BME280;28584;42.636;23.294;2023-03-14T03:25:23;158136.28;;;-1.61;100.00
42945;BME280;28584;42.636;23.294;2023-03-14T03:27:49;158132.31;;;-1.62;100.00
42945;BME280;28584;42.636;23.294;2023-03-14T03:30:14;158117.78;;;-1.68;100.00
42945;BME280;28584;42.636;23.294;2023-03-14T03:32:40;158142.91;;;-1.58;100.00
42945;BME280;28584;42.636;23.294;2023-03-14T03:35:06;158128.34;;;-1.64;100.00
42945;BME280;28584;42.636;23.294;2023-03-14T03:37:32;158109.84;;;-1.71;100.00
42945;BME280;28584;42.636;23.294;2023-03-14T03:39:58;158109.84;;;-1.71;100.00
42945;BME280;28584;42.636;23.294;2023-03-14T03:42:23;158099.28;;;-1.75;100.00
42945;BME280;28584;42.636;23.294;2023-03-14T03:44:49;158107.16;;;-1.72;100.00
42945;BME280;28584;42.636;23.294;2023-03-14T03:47:15;158120.41;;;-1.67;100.00
42945;BME280;28584;42.636;23.294;2023-03-14T03:49:40;158117.78;;;-1.68;100.00
42945;BME280;28584;42.636;23.294;2023-03-14T03:52:06;158152.13;;;-1.55;100.00
42945;BME280;28584;42.636;23.294;2023-03-14T03:54:31;158160.06;;;-1.52;100.00
42945;BME280;28584;42.636;23.294;2023-03-14T03:56:57;158193.13;;;-1.39;100.00
42945;BME280;28584;42.636;23.294;2023-03-14T03:59:22;158230.16;;;-1.25;100.00
42945;BME280;28584;42.636;23.294;2023-03-14T04:01:47;158216.97;;;-1.30;100.00
42945;BME280;28584;42.636;23.294;2023-03-14T04:04:13;158186.53;;;-1.42;100.00
42945;BME280;28584;42.636;23.294;2023-03-14T04:06:39;158157.44;;;-1.53;100.00
42945;BME280;28584;42.636;23.294;2023-03-14T04:09:07;158107.16;;;-1.72;100.00
42945;BME280;28584;42.636;23.294;2023-03-14T04:11:32;158056.94;;;-1.91;100.00
42945;BME280;28584;42.636;23.294;2023-03-14T04:13:57;158060.91;;;-1.89;100.00
42945;BME280;28584;42.636;23.294;2023-03-14T04:16:24;158046.38;;;-1.95;100.00
42945;BME280;28584;42.636;23.294;2023-03-14T04:18:50;158034.47;;;-1.99;100.00
42945;BME280;28584;42.636;23.294;2023-03-14T04:21:17;158019.94;;;-2.05;100.00
42945;BME280;28584;42.636;23.294;2023-03-14T04:23:43;158038.44;;;-1.98;100.00
42945;BME280;28584;42.636;23.294;2023-03-14T04:26:08;158047.66;;;-1.94;100.00
42945;BME280;28584;42.636;23.294;2023-03-14T04:28:34;158035.81;;;-1.99;100.00
42945;BME280;28584;42.636;23.294;2023-03-14T04:31:12;158025.19;;;-2.03;100.00
42945;BME280;28584;42.636;23.294;2023-03-14T04:33:38;158013.34;;;-2.07;100.00
42945;BME280;28584;42.636;23.294;2023-03-14T04:36:04;158027.88;;;-2.02;100.00
42945;BME280;28584;42.636;23.294;2023-03-14T04:38:30;158013.34;;;-2.07;100.00
42945;BME280;28584;42.636;23.294;2023-03-14T04:40:56;158033.13;;;-2.00;100.00
42945;BME280;28584;42.636;23.294;2023-03-14T04:43:21;158033.13;;;-2.00;100.00
42945;BME280;28584;42.636;23.294;2023-03-14T04:45:47;158049.00;;;-1.94;100.00
42945;BME280;28584;42.636;23.294;2023-03-14T04:48:12;158075.44;;;-1.84;100.00
42945;BME280;28584;42.636;23.294;2023-03-14T04:50:38;158125.66;;;-1.65;100.00
42945;BME280;28584;42.636;23.294;2023-03-14T04:53:04;158175.97;;;-1.46;100.00
42945;BME280;28584;42.636;23.294;2023-03-14T04:55:30;158257.97;;;-1.15;100.00
42945;BME280;28584;42.636;23.294;2023-03-14T04:57:57;158328.09;;;-0.88;100.00
42945;BME280;28584;42.636;23.294;2023-03-14T05:00:22;158375.72;;;-0.70;100.00
42945;BME280;28584;42.636;23.294;2023-03-14T05:02:47;158422.06;;;-0.53;100.00
42945;BME280;28584;42.636;23.294;2023-03-14T05:05:13;158436.63;;;-0.47;100.00
42945;BME280;28584;42.636;23.294;2023-03-14T05:07:38;158453.81;;;-0.41;100.00
42945;BME280;28584;42.636;23.294;2023-03-14T05:10:04;158481.66;;;-0.30;100.00
42945;BME280;28584;42.636;23.294;2023-03-14T05:12:29;158537.25;;;-0.09;100.00
42945;BME280;28584;42.636;23.294;2023-03-14T05:14:55;158632.59;;;0.27;100.00
42945;BME280;28584;42.636;23.294;2023-03-14T05:17:20;158739.94;;;0.68;100.00
42945;BME280;28584;42.636;23.294;2023-03-14T05:19:45;158845.94;;;1.08;100.00
42945;BME280;28584;42.636;23.294;2023-03-14T05:22:11;158956.03;;;1.49;100.00
42945;BME280;28584;42.636;23.294;2023-03-14T05:24:37;159074.03;;;1.94;100.00
42945;BME280;28584;42.636;23.294;2023-03-14T05:27:03;159197.44;;;2.40;100.00
42945;BME280;28584;42.636;23.294;2023-03-14T05:29:29;159334.16;;;2.92;92.16
42945;BME280;28584;42.636;23.294;2023-03-14T05:31:55;159455.00;;;3.38;80.42
42945;BME280;28584;42.636;23.294;2023-03-14T05:34:20;159561.25;;;3.78;72.67
42945;BME280;28584;42.636;23.294;2023-03-14T05:36:45;159687.53;;;4.25;68.24
42945;BME280;28584;42.636;23.294;2023-03-14T05:39:11;159805.84;;;4.70;65.43
42945;BME280;28584;42.636;23.294;2023-03-14T05:41:36;159913.56;;;5.10;63.10
42945;BME280;28584;42.636;23.294;2023-03-14T05:44:02;159984.03;;;5.37;60.83
42945;BME280;28584;42.636;23.294;2023-03-14T05:46:27;160053.25;;;5.63;59.25
42945;BME280;28584;42.636;23.294;2023-03-14T05:48:52;160081.19;;;5.73;58.52
42945;BME280;28584;42.636;23.294;2023-03-14T05:51:18;160179.75;;;6.11;58.29
42945;BME280;28584;42.636;23.294;2023-03-14T05:53:43;160004.03;;;5.44;58.46
42945;BME280;28584;42.636;23.294;2023-03-14T05:56:09;160017.34;;;5.49;60.11
42945;BME280;28584;42.636;23.294;2023-03-14T05:58:34;160037.28;;;5.57;58.89
42945;BME280;28584;42.636;23.294;2023-03-14T06:01:03;159993.38;;;5.40;58.86
42945;BME280;28584;42.636;23.294;2023-03-14T06:03:29;159993.38;;;5.40;58.31
42945;BME280;28584;42.636;23.294;2023-03-14T06:05:54;160155.81;;;6.02;59.06
42945;BME280;28584;42.636;23.294;2023-03-14T06:08:20;160075.88;;;5.71;57.82
42945;BME280;28584;42.636;23.294;2023-03-14T06:10:45;159977.41;;;5.34;58.04
42945;BME280;28584;42.636;23.294;2023-03-14T06:13:11;159687.53;;;4.25;58.71
42945;BME280;28584;42.636;23.294;2023-03-14T06:15:36;159819.16;;;4.75;60.09
42945;BME280;28584;42.636;23.294;2023-03-14T06:18:01;159961.44;;;5.28;60.04
42945;BME280;28584;42.636;23.294;2023-03-14T06:20:27;160050.63;;;5.62;59.15
42945;BME280;28584;42.636;23.294;2023-03-14T06:22:52;160070.53;;;5.69;58.85
42945;BME280;28584;42.636;23.294;2023-03-14T06:25:18;160158.47;;;6.03;57.75
42945;BME280;28584;42.636;23.294;2023-03-14T06:27:43;160190.38;;;6.15;58.21
42945;BME280;28584;42.636;23.294;2023-03-14T06:30:09;160238.34;;;6.33;57.40
42945;BME280;28584;42.636;23.294;2023-03-14T06:32:34;160179.75;;;6.11;57.73
42945;BME280;28584;42.636;23.294;2023-03-14T06:35:00;160358.19;;;6.78;57.22
42945;BME280;28584;42.636;23.294;2023-03-14T06:37:29;160264.94;;;6.43;56.72
42945;BME280;28584;42.636;23.294;2023-03-14T06:39:55;160209.00;;;6.22;58.31
42945;BME280;28584;42.636;23.294;2023-03-14T06:42:20;160448.75;;;7.12;56.56
42945;BME280;28584;42.636;23.294;2023-03-14T06:44:46;160595.34;;;7.67;55.11
42945;BME280;28584;42.636;23.294;2023-03-14T06:47:11;160720.66;;;8.14;53.32
42945;BME280;28584;42.636;23.294;2023-03-14T06:49:37;160710.00;;;8.10;51.93
42945;BME280;28584;42.636;23.294;2023-03-14T06:52:02;160776.72;;;8.35;51.58
42945;BME280;28584;42.636;23.294;2023-03-14T06:54:27;160858.06;;;8.66;50.68
42945;BME280;28584;42.636;23.294;2023-03-14T06:56:53;160872.75;;;8.71;50.53
42945;BME280;28584;42.636;23.294;2023-03-14T06:59:18;160922.09;;;8.90;50.02
42945;BME280;28584;42.636;23.294;2023-03-14T07:01:44;160959.47;;;9.04;49.65
42945;BME280;28584;42.636;23.294;2023-03-14T07:04:09;160944.78;;;8.98;49.09
42945;BME280;28584;42.636;23.294;2023-03-14T07:06:35;160796.75;;;8.43;49.72
42945;BME280;28584;42.636;23.294;2023-03-14T07:09:00;160582.03;;;7.62;50.83
42945;BME280;28584;42.636;23.294;2023-03-14T07:11:26;160744.69;;;8.23;51.20
42945;BME280;28584;42.636;23.294;2023-03-14T07:13:51;160859.41;;;8.66;50.22
42945;BME280;28584;42.636;23.294;2023-03-14T07:16:17;160908.78;;;8.85;49.93
42945;BME280;28584;42.636;23.294;2023-03-14T07:18:42;160934.13;;;8.94;50.02
42945;BME280;28584;42.636;23.294;2023-03-14T07:21:08;160703.31;;;8.07;50.81
42945;BME280;28584;42.636;23.294;2023-03-14T07:23:34;160855.41;;;8.65;50.69
42945;BME280;28584;42.636;23.294;2023-03-14T07:26:00;160923.47;;;8.90;49.79
42945;BME280;28584;42.636;23.294;2023-03-14T07:28:26;160992.81;;;9.16;49.29
42945;BME280;28584;42.636;23.294;2023-03-14T07:30:53;161011.50;;;9.23;49.13
42945;BME280;28584;42.636;23.294;2023-03-14T07:33:19;161024.88;;;9.28;49.11
42945;BME280;28584;42.636;23.294;2023-03-14T07:35:47;161094.25;;;9.54;48.39
42945;BME280;28584;42.636;23.294;2023-03-14T07:38:12;161139.66;;;9.71;48.25
42945;BME280;28584;42.636;23.294;2023-03-14T07:40:38;161266.53;;;10.19;47.61
42945;BME280;28584;42.636;23.294;2023-03-14T07:43:03;161350.72;;;10.50;46.68
42945;BME280;28584;42.636;23.294;2023-03-14T07:45:29;161325.34;;;10.41;46.27
42945;BME280;28584;42.636;23.294;2023-03-14T07:47:54;161130.34;;;9.68;47.04
42945;BME280;28584;42.636;23.294;2023-03-14T07:50:23;161278.56;;;10.23;47.89
42945;BME280;28584;42.636;23.294;2023-03-14T07:52:49;161307.94;;;10.34;46.94
42945;BME280;28584;42.636;23.294;2023-03-14T07:55:15;161086.25;;;9.51;46.97
42945;BME280;28584;42.636;23.294;2023-03-14T07:57:40;161083.59;;;9.50;47.95
42945;BME280;28584;42.636;23.294;2023-03-14T08:00:07;161171.72;;;9.83;47.63
42945;BME280;28584;42.636;23.294;2023-03-14T08:02:32;161103.63;;;9.58;48.08
42945;BME280;28584;42.636;23.294;2023-03-14T08:04:58;161086.25;;;9.51;48.92
42945;BME280;28584;42.636;23.294;2023-03-14T08:07:23;161298.63;;;10.31;47.05
42945;BME280;28584;42.636;23.294;2023-03-14T08:09:49;161054.22;;;9.39;47.14
42945;BME280;28584;42.636;23.294;2023-03-14T08:12:14;161269.25;;;10.20;46.99
42945;BME280;28584;42.636;23.294;2023-03-14T08:14:41;161388.13;;;10.64;45.94
42945;BME280;28584;42.636;23.294;2023-03-14T08:17:06;161307.94;;;10.34;45.93
42945;BME280;28584;42.636;23.294;2023-03-14T08:19:33;161369.41;;;10.57;46.50
42945;BME280;28584;42.636;23.294;2023-03-14T08:21:58;161329.38;;;10.42;45.69
42945;BME280;28584;42.636;23.294;2023-03-14T08:24:24;161267.91;;;10.19;46.12
42945;BME280;28584;42.636;23.294;2023-03-14T08:26:49;161393.50;;;10.66;45.54
42945;BME280;28584;42.636;23.294;2023-03-14T08:29:15;161181.03;;;9.87;45.92
42945;BME280;28584;42.636;23.294;2023-03-14T08:31:40;161299.97;;;10.31;46.21
42945;BME280;28584;42.636;23.294;2023-03-14T08:34:06;161155.69;;;9.77;47.63
42945;BME280;28584;42.636;23.294;2023-03-14T08:36:32;161251.84;;;10.13;46.78
42945;BME280;28584;42.636;23.294;2023-03-14T08:38:57;161241.19;;;10.09;46.26
42945;BME280;28584;42.636;23.294;2023-03-14T08:41:23;161050.22;;;9.38;46.54
42945;BME280;28584;42.636;23.294;2023-03-14T08:43:48;161380.09;;;10.61;45.88
42945;BME280;28584;42.636;23.294;2023-03-14T08:46:14;161556.50;;;11.27;44.11
42945;BME280;28584;42.636;23.294;2023-03-14T08:48:39;161505.72;;;11.08;43.25
42945;BME280;28584;42.636;23.294;2023-03-14T08:51:09;161201.09;;;9.94;44.21
42945;BME280;28584;42.636;23.294;2023-03-14T08:53:39;161460.28;;;10.91;43.81
42945;BME280;28584;42.636;23.294;2023-03-14T08:56:05;161585.94;;;11.39;42.92
42945;BME280;28584;42.636;23.294;2023-03-14T08:58:32;161789.19;;;12.15;42.40
42945;BME280;28584;42.636;23.294;2023-03-14T09:00:57;161735.75;;;11.95;41.50
42945;BME280;28584;42.636;23.294;2023-03-14T09:03:24;161672.84;;;11.71;41.53
42945;BME280;28584;42.636;23.294;2023-03-14T09:05:52;161937.72;;;12.70;40.56
42945;BME280;28584;42.636;23.294;2023-03-14T09:08:17;162016.72;;;13.00;39.93
42945;BME280;28584;42.636;23.294;2023-03-14T09:10:43;162094.34;;;13.29;39.11
42945;BME280;28584;42.636;23.294;2023-03-14T09:13:08;162063.59;;;13.17;39.14
42945;BME280;28584;42.636;23.294;2023-03-14T09:15:34;162032.81;;;13.06;39.60
42945;BME280;28584;42.636;23.294;2023-03-14T09:17:59;161977.84;;;12.85;39.78
42945;BME280;28584;42.636;23.294;2023-03-14T09:20:25;161842.72;;;12.35;39.48
42945;BME280;28584;42.636;23.294;2023-03-14T09:22:50;161714.31;;;11.87;40.39
42945;BME280;28584;42.636;23.294;2023-03-14T09:25:16;161722.34;;;11.90;41.98
42945;BME280;28584;42.636;23.294;2023-03-14T09:27:41;161735.75;;;11.95;42.23
42945;BME280;28584;42.636;23.294;2023-03-14T09:30:08;161643.38;;;11.60;42.16
42945;BME280;28584;42.636;23.294;2023-03-14T09:32:34;161579.22;;;11.36;42.31
42945;BME280;28584;42.636;23.294;2023-03-14T09:35:00;161660.84;;;11.67;41.94
42945;BME280;28584;42.636;23.294;2023-03-14T09:37:25;161757.13;;;12.03;41.74
42945;BME280;28584;42.636;23.294;2023-03-14T09:39:51;161742.41;;;11.97;40.71
42945;BME280;28584;42.636;23.294;2023-03-14T09:42:18;161727.72;;;11.92;41.51
42945;BME280;28584;42.636;23.294;2023-03-14T09:45:03;161896.25;;;12.55;41.52
42945;BME280;28584;42.636;23.294;2023-03-14T09:47:33;161904.28;;;12.58;39.84
42945;BME280;28584;42.636;23.294;2023-03-14T09:50:00;161963.13;;;12.80;39.67
42945;BME280;28584;42.636;23.294;2023-03-14T09:52:30;161727.72;;;11.92;40.51
42945;BME280;28584;42.636;23.294;2023-03-14T09:55:06;162014.06;;;12.99;40.55
42945;BME280;28584;42.636;23.294;2023-03-14T09:57:36;162080.97;;;13.24;39.46
42945;BME280;28584;42.636;23.294;2023-03-14T10:02:41;161955.09;;;12.77;40.19
42945;BME280;28584;42.636;23.294;2023-03-14T10:05:18;161973.84;;;12.84;40.04
42945;BME280;28584;42.636;23.294;2023-03-14T10:07:44;161905.63;;;12.58;40.55
42945;BME280;28584;42.636;23.294;2023-03-14T10:10:23;161874.84;;;12.47;40.75
42945;BME280;28584;42.636;23.294;2023-03-14T10:13:15;161803.97;;;12.20;40.78
42945;BME280;28584;42.636;23.294;2023-03-14T10:15:42;161882.88;;;12.50;40.93
42945;BME280;28584;42.636;23.294;2023-03-14T10:18:12;161896.25;;;12.55;40.55
42945;BME280;28584;42.636;23.294;2023-03-14T10:20:49;161775.84;;;12.10;40.92
42945;BME280;28584;42.636;23.294;2023-03-14T10:25:45;161636.72;;;11.58;42.50
42945;BME280;28584;42.636;23.294;2023-03-14T10:28:30;161601.94;;;11.45;42.62
42945;BME280;28584;42.636;23.294;2023-03-14T10:30:57;161668.84;;;11.70;42.83
42945;BME280;28584;42.636;23.294;2023-03-14T10:33:25;161524.44;;;11.15;43.50
42945;BME280;28584;42.636;23.294;2023-03-14T10:35:54;161580.56;;;11.37;43.52
42945;BME280;28584;42.636;23.294;2023-03-14T10:38:25;161694.28;;;11.79;43.21
42945;BME280;28584;42.636;23.294;2023-03-14T10:40:52;161783.88;;;12.13;42.46
42945;BME280;28584;42.636;23.294;2023-03-14T10:43:22;161802.59;;;12.20;42.30
42945;BME280;28584;42.636;23.294;2023-03-14T10:45:57;161660.84;;;11.67;43.00
42945;BME280;28584;42.636;23.294;2023-03-14T10:48:25;161769.16;;;12.07;42.61
42945;BME280;28584;42.636;23.294;2023-03-14T10:51:02;161659.50;;;11.66;42.38
42945;BME280;28584;42.636;23.294;2023-03-14T10:53:41;161742.41;;;11.97;42.81
42945;BME280;28584;42.636;23.294;2023-03-14T10:56:07;161787.88;;;12.14;42.34
42945;BME280;28584;42.636;23.294;2023-03-14T10:58:41;161773.19;;;12.09;42.58
42945;BME280;28584;42.636;23.294;2023-03-14T11:01:28;161801.25;;;12.19;42.31
42945;BME280;28584;42.636;23.294;2023-03-14T11:04:15;161802.59;;;12.20;42.30
42945;BME280;28584;42.636;23.294;2023-03-14T11:06:50;161782.50;;;12.12;42.01
42945;BME280;28584;42.636;23.294;2023-03-14T11:09:25;161699.59;;;11.81;42.66
42945;BME280;28584;42.636;23.294;2023-03-14T11:12:01;161749.09;;;12.00;42.74
42945;BME280;28584;42.636;23.294;2023-03-14T11:14:35;161709.00;;;11.85;43.01
42945;BME280;28584;42.636;23.294;2023-03-14T11:28:40;161783.88;;;12.13;43.72
42945;BME280;28584;42.636;23.294;2023-03-14T11:31:28;161830.66;;;12.30;43.86
42945;BME280;28584;42.636;23.294;2023-03-14T11:37:04;161786.53;;;12.14;44.06
42945;BME280;28584;42.636;23.294;2023-03-14T11:39:39;161803.97;;;12.20;43.75
42945;BME280;28584;42.636;23.294;2023-03-14T11:42:10;161676.88;;;11.73;44.46
42945;BME280;28584;42.636;23.294;2023-03-14T11:44:38;161786.53;;;12.14;44.44
42945;BME280;28584;42.636;23.294;2023-03-14T11:47:17;161829.34;;;12.30;43.92
42945;BME280;28584;42.636;23.294;2023-03-14T11:49:50;161869.47;;;12.45;43.68
42945;BME280;28584;42.636;23.294;2023-03-14T11:52:25;161906.94;;;12.59;43.59
42945;BME280;28584;42.636;23.294;2023-03-14T11:55:05;161910.94;;;12.60;42.96
42945;BME280;28584;42.636;23.294;2023-03-14T11:57:32;161884.19;;;12.50;43.41
42945;BME280;28584;42.636;23.294;2023-03-14T12:00:16;161923.00;;;12.65;43.15
42945;BME280;28584;42.636;23.294;2023-03-14T12:03:04;161896.25;;;12.55;42.60
42945;BME280;28584;42.636;23.294;2023-03-14T12:10:55;161932.34;;;12.68;42.63
42945;BME280;28584;42.636;23.294;2023-03-14T12:13:28;161960.47;;;12.79;43.02
42945;BME280;28584;42.636;23.294;2023-03-14T12:15:59;161989.91;;;12.90;42.59
42945;BME280;28584;42.636;23.294;2023-03-14T12:18:28;162012.72;;;12.98;41.98
42945;BME280;28584;42.636;23.294;2023-03-14T12:20:58;162054.19;;;13.14;41.90
42945;BME280;28584;42.636;23.294;2023-03-14T12:23:24;162105.09;;;13.33;41.77
42945;BME280;28584;42.636;23.294;2023-03-14T12:29:11;162107.75;;;13.34;40.78
42945;BME280;28584;42.636;23.294;2023-03-14T12:31:46;162134.53;;;13.44;40.80
42945;BME280;28584;42.636;23.294;2023-03-14T12:45:23;162186.75;;;13.63;39.83
42945;BME280;28584;42.636;23.294;2023-03-14T12:50:44;162248.38;;;13.87;39.97
42945;BME280;28584;42.636;23.294;2023-03-14T12:58:57;162273.81;;;13.96;39.12
42945;BME280;28584;42.636;23.294;2023-03-14T13:01:27;162271.16;;;13.95;39.27
42945;BME280;28584;42.636;23.294;2023-03-14T13:03:56;162292.56;;;14.03;39.03
42945;BME280;28584;42.636;23.294;2023-03-14T13:06:51;162281.84;;;13.99;38.65
42945;BME280;28584;42.636;23.294;2023-03-14T13:12:13;162324.69;;;14.15;38.42
42945;BME280;28584;42.636;23.294;2023-03-14T13:14:49;162297.88;;;14.05;38.20
42945;BME280;28584;42.636;23.294;2023-03-14T13:17:23;162271.16;;;13.95;38.41
42945;BME280;28584;42.636;23.294;2023-03-14T13:19:52;162324.69;;;14.15;38.70
42945;BME280;28584;42.636;23.294;2023-03-14T13:22:23;162350.22;;;14.25;38.17
42945;BME280;28584;42.636;23.294;2023-03-14T13:24:50;162338.13;;;14.20;38.13
42945;BME280;28584;42.636;23.294;2023-03-14T13:27:20;162327.41;;;14.16;37.78
42945;BME280;28584;42.636;23.294;2023-03-14T13:29:49;162348.88;;;14.24;38.15
42945;BME280;28584;42.636;23.294;2023-03-14T13:32:26;162370.28;;;14.32;37.81
42945;BME280;28584;42.636;23.294;2023-03-14T13:34:55;162394.44;;;14.41;38.10
42945;BME280;28584;42.636;23.294;2023-03-14T13:37:22;162381.00;;;14.36;38.10